PWSweather.com
Personal Weather Stations
Station Observations
WISCHPK61
Green Bay Schmitt Park, Green Bay, WI 54311

Green Bay Schmitt ParkGreen Bay, WI 54311

Lat: 44.514277, Lon: -87.935067

Elevation: 735

Station Type: Acu Rite Pro Weather Center model 02032C

http://greenbayweathercam.com

Latest ConditionsUpdated 7:00:00 PM CDT Friday, May 24, 2019
Currently Today's Max Today's Min Today's Average
Temperature 57.9°F14.4°C 61.3°F16.3°C 50.2°F10.1°C 54.5°F12.5°C
Dew Point 57.6°F14.2°C 61.0°F16.1°C 46.7°F8.2°C 53.3°F11.8°C
Winds Calm Calm Calm -Calm - - Calm Calm
Wind Gusts -- -- - -
Humidity 99% 99% 78% 96%
Pressure 29.25 in990.5 mb 29.46 in997.6 mb 29.25 in990.5 mb -
Hour Temp Dew Point Humidity Winds Wind Gusts Pressure Precip Precip Rate Daily Precip Total
07:00 PM 57.9°F14.4°C 57.6°F14.2°C 99% Calm Calm -- 29.25 in990.5 mb - 0.00 in0.0 mm 0.00 in0.0 mm
06:00 PM 60.1°F15.6°C 59.8°F15.4°C 99% Calm Calm -- 29.27 in991.2 mb - 0.00 in0.0 mm 0.00 in0.0 mm
05:00 PM 61.3°F16.3°C 61.0°F16.1°C 99% Calm Calm -- 29.29 in991.9 mb - 0.00 in0.0 mm 0.00 in0.0 mm
04:00 PM 56.8°F13.8°C 56.5°F13.6°C 99% Calm Calm -- 29.34 in993.6 mb - 0.00 in0.0 mm 0.00 in0.0 mm
03:00 PM 58.3°F14.6°C 55.1°F12.8°C 89% Calm Calm -- 29.34 in993.6 mb - 0.00 in0.0 mm 0.00 in0.0 mm
02:00 PM 57.0°F13.9°C 56.7°F13.7°C 99% Calm Calm -- 29.35 in993.9 mb - 0.00 in0.0 mm 0.00 in0.0 mm
01:00 PM 55.6°F13.1°C 55.3°F12.9°C 99% Calm Calm -- 29.34 in993.6 mb - 0.00 in0.0 mm 0.00 in0.0 mm
12:00 PM 55.2°F12.9°C 48.5°F9.2°C 78% Calm Calm -- 29.44 in997.0 mb - 0.00 in0.0 mm 0.00 in0.0 mm
11:00 AM 56.8°F13.8°C 51.7°F10.9°C 83% Calm Calm -- 29.43 in996.6 mb - 0.00 in0.0 mm 0.00 in0.0 mm
10:00 AM 56.5°F13.6°C 56.2°F13.4°C 99% Calm Calm -- 29.43 in996.6 mb - 0.00 in0.0 mm 0.00 in0.0 mm
09:00 AM 54.2°F12.3°C 53.9°F12.2°C 99% Calm Calm -- 29.40 in995.6 mb - 0.00 in0.0 mm 0.00 in0.0 mm
08:00 AM 51.3°F10.7°C 51.0°F10.6°C 99% Calm Calm -- 29.43 in996.6 mb - 0.00 in0.0 mm 0.00 in0.0 mm
07:00 AM 50.2°F10.1°C 48.0°F8.9°C 92% Calm Calm -- 29.46 in997.6 mb - 0.00 in0.0 mm 0.00 in0.0 mm
06:00 AM 50.4°F10.2°C 50.1°F10.1°C 99% Calm Calm -- 29.45 in997.3 mb - 0.00 in0.0 mm 0.00 in0.0 mm
05:00 AM 50.4°F10.2°C 46.7°F8.2°C 87% Calm Calm -- 29.42 in996.3 mb - 0.00 in0.0 mm 0.00 in0.0 mm
04:00 AM 50.4°F10.2°C 50.1°F10.1°C 99% Calm Calm -- 29.43 in996.6 mb - 0.00 in0.0 mm 0.00 in0.0 mm
03:00 AM 50.2°F10.1°C 49.9°F9.9°C 99% Calm Calm -- 29.40 in995.6 mb - 0.00 in0.0 mm 0.00 in0.0 mm
02:00 AM 51.4°F10.8°C 51.1°F10.6°C 99% Calm Calm -- 29.40 in995.6 mb - 0.00 in0.0 mm 0.00 in0.0 mm
01:00 AM 52.5°F11.4°C 52.2°F11.2°C 99% Calm Calm -- 29.38 in994.9 mb - 0.00 in0.0 mm 0.00 in0.0 mm
12:00 AM 54.0°F12.2°C 53.7°F12.1°C 99% Calm Calm -- 29.40 in995.6 mb - 0.00 in0.0 mm 0.00 in0.0 mm